^^
Grace C. Lehan Memorial Weather Station Historical Data
Daily Summary for September 23, 2021 Units:  English    Metric   Both
Daily Weekly Monthly Yearly
  High: Low: Average:
Temperature: 34.5 °F 27.3 °F 30.8 °F
Dew Point: 19.2 °F 4.1 °F 12.8 °F
Humidity: 58.8% 28.4% 48%
Wind Speed: 13.5mph 0mph 4.4mph
Wind Gust: 25mph - -
Wind- - NW
Pressure: 30.17 in 29.83 in -
Precipitation: 0.00 in    
 
 
Tabular Data for September 23, 2021
Time Temperature Dew Point Pressure Wind Wind Speed Wind Gust Humidity Rainfall Rate (Hourly) solar
00:04 33.7 °F 19.2 °F 29.83 in NW 10.4 mph 23 mph 55% 0.00 in 0 W/m2
00:09 33.6 °F 19.1 °F 29.83 in NW 12.1 mph 25 mph 54.8% 0.00 in 0 W/m2
00:14 33.6 °F 18.9 °F 29.84 in NW 9.7 mph 25 mph 54.4% 0.00 in 0 W/m2
00:19 33.6 °F 18.7 °F 29.84 in WNW 12.4 mph 25 mph 54% 0.00 in 0 W/m2
00:24 33.6 °F 18.7 °F 29.85 in NW 8.1 mph 25 mph 54% 0.00 in 0 W/m2
00:29 33.5 °F 18.9 °F 29.85 in NW 6.3 mph 25 mph 54.5% 0.00 in 0 W/m2
00:34 33.4 °F 18.5 °F 29.86 in WNW 10.2 mph 25 mph 53.8% 0.00 in 0 W/m2
00:39 33.4 °F 18.1 °F 29.86 in WNW 8.5 mph 23 mph 53% 0.00 in 0 W/m2
00:44 33.3 °F 17.6 °F 29.87 in WNW 8.8 mph 24 mph 52.1% 0.00 in 0 W/m2
00:49 33.1 °F 17.4 °F 29.87 in NW 6.8 mph 24 mph 52% 0.00 in 0 W/m2
00:54 33 °F 17.3 °F 29.86 in WNW 8.7 mph 24 mph 52% 0.00 in 0 W/m2
00:59 33 °F 17.3 °F 29.86 in NW 9.1 mph 24 mph 52% 0.00 in 0 W/m2
01:04 32.9 °F 17.2 °F 29.86 in WNW 7.5 mph 24 mph 52% 0.00 in 0 W/m2
01:09 32.8 °F 17.1 °F 29.87 in WNW 4.9 mph 15 mph 52% 0.00 in 0 W/m2
01:14 32.6 °F 17 °F 29.88 in WNW 5.3 mph 18 mph 52% 0.00 in 0 W/m2
01:19 32.5 °F 17 °F 29.88 in WNW 4 mph 18 mph 52.3% 0.00 in 0 W/m2
01:24 32.4 °F 17.1 °F 29.88 in WNW 6.6 mph 18 mph 52.6% 0.00 in 0 W/m2
01:29 32.4 °F 16.8 °F 29.89 in NW 10.2 mph 22 mph 52% 0.00 in 0 W/m2
01:34 32.4 °F 16.7 °F 29.89 in WNW 7.5 mph 22 mph 52% 0.00 in 0 W/m2
01:39 32.3 °F 16.8 °F 29.89 in WNW 8.8 mph 19 mph 52.2% 0.00 in 0 W/m2
01:44 32.2 °F 17 °F 29.89 in NW 7.2 mph 19 mph 53% 0.00 in 0 W/m2
01:49 32.2 °F 17 °F 29.90 in WNW 6.6 mph 19 mph 53% 0.00 in 0 W/m2
01:54 32.1 °F 17 °F 29.90 in WNW 4.8 mph 19 mph 53.2% 0.00 in 0 W/m2
01:59 31.9 °F 17.2 °F 29.90 in WNW 6.1 mph 19 mph 54% 0.00 in 0 W/m2
02:04 31.8 °F 17.1 °F 29.91 in WNW 7.5 mph 19 mph 54% 0.00 in 0 W/m2
02:09 31.7 °F 17.1 °F 29.91 in NW 5.8 mph 16 mph 54.2% 0.00 in 0 W/m2
02:14 31.6 °F 17.5 °F 29.91 in NW 8.2 mph 20 mph 55.4% 0.00 in 0 W/m2
02:19 31.6 °F 17.7 °F 29.91 in WNW 8 mph 20 mph 56% 0.00 in 0 W/m2
02:24 31.6 °F 17.9 °F 29.92 in NW 3.8 mph 20 mph 56.4% 0.00 in 0 W/m2
02:29 31.5 °F 18 °F 29.92 in NW 3.5 mph 20 mph 57% 0.00 in 0 W/m2
02:34 31.3 °F 17.8 °F 29.92 in NW 8.5 mph 20 mph 57% 0.00 in 0 W/m2
02:39 31.2 °F 17.6 °F 29.93 in NW 7.6 mph 20 mph 56.8% 0.00 in 0 W/m2
02:44 31.1 °F 17.3 °F 29.93 in NW 8.2 mph 20 mph 56.2% 0.00 in 0 W/m2
02:49 31 °F 17.3 °F 29.93 in NW 8.8 mph 20 mph 56.4% 0.00 in 0 W/m2
02:54 30.9 °F 17.1 °F 29.94 in WNW 9.4 mph 20 mph 56.2% 0.00 in 0 W/m2
02:59 30.8 °F 17 °F 29.93 in WNW 9.2 mph 21 mph 56% 0.00 in 0 W/m2
03:04 30.7 °F 16.9 °F 29.94 in NW 11.8 mph 21 mph 56% 0.00 in 0 W/m2
03:09 30.6 °F 16.4 °F 29.94 in NW 9.3 mph 21 mph 55% 0.00 in 0 W/m2
03:14 30.5 °F 16.3 °F 29.94 in WNW 4.7 mph 21 mph 55.1% 0.00 in 0 W/m2
03:19 30.3 °F 16.2 °F 29.94 in WNW 4.5 mph 21 mph 55.3% 0.00 in 0 W/m2
03:24 30.2 °F 16.3 °F 29.94 in NW 6.4 mph 21 mph 55.6% 0.00 in 0 W/m2
03:29 30.1 °F 16.1 °F 29.94 in NW 3.9 mph 21 mph 55.3% 0.00 in 0 W/m2
03:34 30 °F 15.8 °F 29.94 in NW 5.5 mph 21 mph 55% 0.00 in 0 W/m2
03:39 29.9 °F 15.7 °F 29.94 in WNW 4.7 mph 17 mph 55% 0.00 in 0 W/m2
03:44 29.8 °F 15.7 °F 29.95 in NW 6.1 mph 17 mph 55% 0.00 in 0 W/m2
03:49 29.8 °F 15.6 °F 29.95 in NW 4.4 mph 17 mph 55% 0.00 in 0 W/m2
03:54 29.7 °F 15.5 °F 29.95 in WNW 1.2 mph 17 mph 55% 0.00 in 0 W/m2
03:59 29.6 °F 15.5 °F 29.95 in WNW 7.8 mph 17 mph 55.2% 0.00 in 0 W/m2
04:00 29.6 °F 15.4 °F 29.95 in NW 7 mph 17 mph 55% 0.00 in 0 W/m2
04:09 29.5 °F 15.3 °F 29.96 in NW 8.5 mph 20 mph 55% 0.00 in 0 W/m2
04:14 29.5 °F 15.3 °F 29.96 in NW 13.5 mph 24 mph 55% 0.00 in 0 W/m2
04:19 29.4 °F 15.3 °F 29.96 in NW 10.7 mph 24 mph 55% 0.00 in 0 W/m2
04:24 29.4 °F 15.2 °F 29.96 in NW 10 mph 24 mph 55% 0.00 in 0 W/m2
04:29 29.3 °F 15.2 °F 29.96 in NW 8.2 mph 24 mph 55% 0.00 in 0 W/m2
04:34 29.2 °F 15.3 °F 29.96 in NW 8.6 mph 24 mph 55.5% 0.00 in 0 W/m2
04:39 29.1 °F 15.4 °F 29.96 in WNW 5.3 mph 16 mph 56% 0.00 in 0 W/m2
04:44 29 °F 15.3 °F 29.96 in NW 8.4 mph 17 mph 56% 0.00 in 0 W/m2
04:49 29 °F 15.2 °F 29.96 in NW 5.6 mph 17 mph 56% 0.00 in 0 W/m2
04:54 28.9 °F 15.2 °F 29.97 in WNW 6.5 mph 17 mph 56% 0.00 in 0 W/m2
04:59 28.8 °F 15.1 °F 29.97 in WNW 6.4 mph 17 mph 56% 0.00 in 0 W/m2
05:04 28.8 °F 15.2 °F 29.97 in NW 2.6 mph 17 mph 56.2% 0.00 in 0 W/m2
05:09 28.7 °F 15.4 °F 29.97 in NW 7.3 mph 16 mph 57% 0.00 in 0 W/m2
05:14 28.6 °F 15.3 °F 29.98 in NW 4.1 mph 16 mph 57% 0.00 in 0 W/m2
05:19 28.5 °F 15.2 °F 29.99 in NW 4 mph 16 mph 57% 0.00 in 0 W/m2
05:24 28.5 °F 15.6 °F 29.99 in WNW 2.8 mph 16 mph 58% 0.00 in 0 W/m2
05:29 28.4 °F 15.5 °F 29.99 in NW 3.6 mph 16 mph 58% 0.00 in 0 W/m2
05:34 28.3 °F 15.5 °F 30.00 in NW 6 mph 16 mph 58% 0.00 in 0 W/m2
05:39 28.3 °F 15.4 °F 30.00 in WNW 2.6 mph 14 mph 58% 0.00 in 0 W/m2
05:44 28.3 °F 15.4 °F 30.01 in WNW 0.9 mph 14 mph 58% 0.00 in 0 W/m2
05:49 28.2 °F 15.3 °F 30.01 in NW 1.8 mph 14 mph 58% 0.00 in 0 W/m2
05:54 28.1 °F 15.3 °F 30.02 in WNW 5.2 mph 14 mph 58.2% 0.00 in 0 W/m2
05:59 28.1 °F 15.2 °F 30.02 in WNW 5.8 mph 14 mph 58% 0.00 in 0 W/m2
06:04 28.1 °F 15.4 °F 30.03 in WNW 5.1 mph 14 mph 58.5% 0.00 in 0 W/m2
06:09 28.1 °F 15.5 °F 30.03 in NW 3.7 mph 14 mph 58.6% 0.00 in 0 W/m2
06:14 28.1 °F 15.5 °F 30.04 in NW 6.4 mph 14 mph 58.8% 0.00 in 0 W/m2
06:19 28 °F 15.2 °F 30.04 in NW 6.3 mph 16 mph 58.1% 0.00 in 0 W/m2
06:24 28 °F 15.2 °F 30.04 in NW 6 mph 16 mph 58% 0.00 in 0 W/m2
06:29 28 °F 15.2 °F 30.05 in WNW 5.4 mph 16 mph 58% 0.00 in 0 W/m2
06:34 27.9 °F 15.1 °F 30.05 in WNW 3.3 mph 16 mph 58% 0.00 in 0 W/m2
06:39 27.9 °F 15.1 °F 30.05 in WNW 6.1 mph 17 mph 58% 0.00 in 0 W/m2
06:44 27.8 °F 14.7 °F 30.06 in WNW 7.3 mph 17 mph 57.2% 0.00 in 0 W/m2
06:49 27.8 °F 14.6 °F 30.06 in WNW 8.2 mph 17 mph 57% 0.00 in 0 W/m2
06:54 27.8 °F 14.6 °F 30.06 in WNW 7.8 mph 17 mph 57% 0.00 in 0 W/m2
06:59 27.8 °F 14.5 °F 30.06 in WNW 5.7 mph 18 mph 57% 0.00 in 0 W/m2
07:04 27.7 °F 14.5 °F 30.06 in NW 7.9 mph 18 mph 57% 0.00 in 0 W/m2
07:09 27.6 °F 14.4 °F 30.06 in NW 6.4 mph 16 mph 57% 0.00 in 0 W/m2
07:14 27.6 °F 14.1 °F 30.06 in NW 9.3 mph 16 mph 56.4% 0.00 in 5 W/m2
07:19 27.5 °F 13.9 °F 30.06 in NW 4.9 mph 16 mph 56% 0.00 in 5 W/m2
07:24 27.5 °F 14.3 °F 30.06 in WNW 6 mph 16 mph 57.1% 0.00 in 7 W/m2
07:29 27.4 °F 13.8 °F 30.06 in WNW 8.1 mph 16 mph 56% 0.00 in 11 W/m2
07:34 27.3 °F 13.6 °F 30.06 in NW 7.5 mph 16 mph 55.8% 0.00 in 14 W/m2
07:39 27.3 °F 13.3 °F 30.07 in WNW 6.1 mph 14 mph 55% 0.00 in 23 W/m2
07:44 27.3 °F 13.3 °F 30.06 in NW 6.6 mph 17 mph 55.2% 0.00 in 46 W/m2
07:49 27.4 °F 13.4 °F 30.07 in NW 4.8 mph 17 mph 55% 0.00 in 53 W/m2
07:54 27.7 °F 13.1 °F 30.07 in NW 6.4 mph 17 mph 53.7% 0.00 in 63 W/m2
07:59 28.1 °F 12.8 °F 30.08 in NW 3.9 mph 17 mph 52.1% 0.00 in 77 W/m2
08:00 28.3 °F 12.9 °F 30.08 in NW 7 mph 17 mph 52% 0.00 in 77 W/m2
08:09 28.8 °F 12.8 °F 30.09 in WNW 8.9 mph 20 mph 50.6% 0.00 in 102 W/m2
08:14 29 °F 12.4 °F 30.09 in WNW 5.5 mph 20 mph 49.4% 0.00 in 121 W/m2
08:19 29.2 °F 12.4 °F 30.09 in NW 6.4 mph 20 mph 49% 0.00 in 141 W/m2
08:24 29.4 °F 12 °F 30.09 in NW 7.2 mph 20 mph 47.7% 0.00 in 156 W/m2
08:29 29.6 °F 11.8 °F 30.10 in NW 5.3 mph 20 mph 47% 0.00 in 163 W/m2
08:34 29.8 °F 12 °F 30.10 in NW 3.7 mph 20 mph 46.8% 0.00 in 146 W/m2
08:39 30.1 °F 12 °F 30.10 in NW 5.2 mph 14 mph 46.5% 0.00 in 186 W/m2
08:44 30.2 °F 11.5 °F 30.10 in NW 3.3 mph 14 mph 45.2% 0.00 in 179 W/m2
08:49 30.2 °F 11 °F 30.11 in NW 8.3 mph 14 mph 44.2% 0.00 in 174 W/m2
08:54 30.1 °F 10.4 °F 30.11 in NW 4.9 mph 14 mph 43.2% 0.00 in 190 W/m2
08:59 30 °F 10.4 °F 30.11 in NW 6.1 mph 15 mph 43.4% 0.00 in 199 W/m2
09:04 30.1 °F 10.6 °F 30.12 in NW 2.9 mph 15 mph 43.5% 0.00 in 211 W/m2
09:09 30.4 °F 10.4 °F 30.12 in NW 4.8 mph 13 mph 42.6% 0.00 in 137 W/m2
09:14 30.4 °F 10 °F 30.12 in NW 5.1 mph 13 mph 41.8% 0.00 in 179 W/m2
09:19 30.3 °F 10 °F 30.13 in NW 3.1 mph 13 mph 42% 0.00 in 179 W/m2
09:24 30.3 °F 9.8 °F 30.13 in NW 2 mph 13 mph 41.6% 0.00 in 162 W/m2
09:29 30.4 °F 10.1 °F 30.13 in NNW 2.4 mph 13 mph 42% 0.00 in 142 W/m2
09:34 30.6 °F 10.2 °F 30.13 in WNW 3.3 mph 13 mph 42% 0.00 in 171 W/m2
09:39 30.5 °F 9.6 °F 30.14 in NW 5.6 mph 12 mph 41% 0.00 in 72 W/m2
09:44 30.3 °F 9.3 °F 30.14 in WNW 8.3 mph 17 mph 40.6% 0.00 in 165 W/m2
09:49 30.2 °F 8.8 °F 30.14 in NW 7.1 mph 17 mph 40% 0.00 in 105 W/m2
09:54 30.1 °F 8.7 °F 30.14 in NW 4.8 mph 17 mph 40% 0.00 in 128 W/m2
09:59 30.2 °F 9.1 °F 30.13 in NNW 1.4 mph 17 mph 40.5% 0.00 in 121 W/m2
10:04 30.5 °F 9.7 °F 30.13 in NNW 1.2 mph 17 mph 41.2% 0.00 in 195 W/m2
10:09 30.9 °F 9.7 °F 30.14 in NNW 6.4 mph 13 mph 40.5% 0.00 in 200 W/m2
10:14 31.3 °F 9.6 °F 30.14 in NW 3.6 mph 14 mph 39.7% 0.00 in 283 W/m2
10:19 31.8 °F 10.1 °F 30.14 in NW 5.5 mph 16 mph 39.7% 0.00 in 336 W/m2
10:24 32.4 °F 9.8 °F 30.14 in NW 5.7 mph 16 mph 38.3% 0.00 in 422 W/m2
10:29 33 °F 10.1 °F 30.14 in NW 4.1 mph 16 mph 37.8% 0.00 in 429 W/m2
10:34 33.6 °F 10.3 °F 30.14 in NW 2.5 mph 16 mph 37.4% 0.00 in 436 W/m2
10:39 34.1 °F 10.1 °F 30.14 in NW 4.4 mph 13 mph 36.2% 0.00 in 436 W/m2
10:44 34.3 °F 9.5 °F 30.13 in NW 5.7 mph 14 mph 35.1% 0.00 in 364 W/m2
10:49 34.2 °F 9.4 °F 30.13 in NW 5.4 mph 14 mph 35% 0.00 in 330 W/m2
10:54 34.1 °F 9.2 °F 30.13 in WNW 4.7 mph 16 mph 34.8% 0.00 in 176 W/m2
10:59 34 °F 8.6 °F 30.13 in NW 6.9 mph 16 mph 34% 0.00 in 107 W/m2
11:04 33.8 °F 8.4 °F 30.13 in NW 5.4 mph 17 mph 34% 0.00 in 148 W/m2
11:09 33.7 °F 8.5 °F 30.13 in NW 2.5 mph 17 mph 34.3% 0.00 in 160 W/m2
11:14 33.8 °F 9.2 °F 30.13 in NNW 2.6 mph 17 mph 35.2% 0.00 in 62 W/m2
11:19 34 °F 9.3 °F 30.13 in NW 3.4 mph 17 mph 35.1% 0.00 in 74 W/m2
11:24 33.9 °F 8.1 °F 30.13 in NW 7.3 mph 17 mph 33.3% 0.00 in 88 W/m2
11:29 33.8 °F 7.7 °F 30.12 in NW 4.2 mph 17 mph 33% 0.00 in 72 W/m2
11:34 33.7 °F 7.7 °F 30.12 in NW 4.4 mph 17 mph 33.2% 0.00 in 197 W/m2
11:39 33.7 °F 7.9 °F 30.13 in WNW 3.3 mph 13 mph 33.4% 0.00 in 262 W/m2
11:44 33.8 °F 7.5 °F 30.13 in WNW 8.3 mph 16 mph 32.7% 0.00 in 239 W/m2
11:49 33.7 °F 7.5 °F 30.12 in NW 6.3 mph 16 mph 32.7% 0.00 in 171 W/m2
11:54 33.8 °F 7.1 °F 30.12 in NW 4.4 mph 16 mph 32.1% 0.00 in 86 W/m2
11:59 33.9 °F 7.5 °F 30.12 in WNW 8.7 mph 19 mph 32.6% 0.00 in 330 W/m2
12:00 33.9 °F 6.5 °F 30.12 in WNW 10 mph 19 mph 31% 0.00 in 330 W/m2
12:09 33.9 °F 5.9 °F 30.12 in WNW 10.5 mph 21 mph 30.3% 0.00 in 343 W/m2
12:14 33.8 °F 4.9 °F 30.12 in NW 11.1 mph 21 mph 29% 0.00 in 327 W/m2
12:19 33.6 °F 4.6 °F 30.12 in WNW 9.8 mph 21 mph 28.8% 0.00 in 253 W/m2
12:24 33.3 °F 4.1 °F 30.11 in WNW 10.7 mph 21 mph 28.4% 0.00 in 109 W/m2
12:29 33.1 °F 4.4 °F 30.11 in NW 6.8 mph 21 mph 29.1% 0.00 in 114 W/m2
12:34 33.3 °F 4.5 °F 30.11 in WNW 8.7 mph 21 mph 29% 0.00 in 216 W/m2
12:39 33.5 °F 4.5 °F 30.11 in WNW 8.8 mph 18 mph 28.8% 0.00 in 329 W/m2
12:44 33.8 °F 5.1 °F 30.11 in WNW 3.2 mph 18 mph 29.3% 0.00 in 323 W/m2
12:49 34.3 °F 5.6 °F 30.11 in WNW 6.8 mph 18 mph 29.3% 0.00 in 287 W/m2
12:54 34.5 °F 5.5 °F 30.11 in NW 5.1 mph 18 mph 29% 0.00 in 172 W/m2
12:59 34.5 °F 6.5 °F 30.11 in WNW 9 mph 22 mph 30.3% 0.00 in 155 W/m2
13:04 34.2 °F 6.3 °F 30.11 in WNW 11.4 mph 22 mph 30.5% 0.00 in 165 W/m2
13:09 33.7 °F 6.1 °F 30.11 in NW 12 mph 22 mph 30.7% 0.00 in 181 W/m2
13:14 33.4 °F 6.1 °F 30.12 in NW 4.9 mph 22 mph 31.1% 0.00 in 155 W/m2
13:19 33.3 °F 6.6 °F 30.12 in NW 5.3 mph 22 mph 32% 0.00 in 139 W/m2
13:24 33.2 °F 6.5 °F 30.11 in NW 5.6 mph 22 mph 32% 0.00 in 128 W/m2
13:29 33 °F 6.4 °F 30.12 in NW 5.5 mph 22 mph 32% 0.00 in 125 W/m2
13:34 32.9 °F 6.3 °F 30.12 in WNW 7.8 mph 22 mph 32% 0.00 in 135 W/m2
13:39 32.8 °F 6.5 °F 30.12 in WNW 5.1 mph 14 mph 32.4% 0.00 in 141 W/m2
13:44 32.8 °F 6.9 °F 30.12 in WNW 5.5 mph 15 mph 33% 0.00 in 146 W/m2
13:49 32.9 °F 7.3 °F 30.12 in NW 8.8 mph 19 mph 33.5% 0.00 in 146 W/m2
13:54 33 °F 7.6 °F 30.12 in NW 5.3 mph 19 mph 33.9% 0.00 in 139 W/m2
13:59 33 °F 8.4 °F 30.12 in NW 4.8 mph 19 mph 35% 0.00 in 114 W/m2
14:04 33 °F 8.5 °F 30.12 in WNW 4.3 mph 19 mph 35.3% 0.00 in 171 W/m2
14:09 33.1 °F 9.8 °F 30.12 in NW 6.7 mph 14 mph 37.2% 0.00 in 142 W/m2
14:14 33.3 °F 10.8 °F 30.12 in NW 3.2 mph 14 mph 38.7% 0.00 in 137 W/m2
14:19 33.5 °F 11.9 °F 30.12 in NW 4.7 mph 14 mph 40.3% 0.00 in 116 W/m2
14:24 33.6 °F 10.9 °F 30.12 in NW 2.8 mph 14 mph 38.3% 0.00 in 105 W/m2
14:29 33.7 °F 10.8 °F 30.13 in NW 4.9 mph 14 mph 38% 0.00 in 90 W/m2
14:34 33.6 °F 10.5 °F 30.12 in WNW 4.9 mph 14 mph 37.5% 0.00 in 79 W/m2
14:39 33.5 °F 10.5 °F 30.12 in NNW 4.3 mph 13 mph 37.8% 0.00 in 83 W/m2
14:44 33.5 °F 10.6 °F 30.12 in NW 5.8 mph 14 mph 38% 0.00 in 58 W/m2
14:49 33.5 °F 10.6 °F 30.12 in WNW 3.4 mph 14 mph 38% 0.00 in 44 W/m2
14:54 33.5 °F 11.1 °F 30.12 in WNW 3.7 mph 14 mph 38.8% 0.00 in 40 W/m2
14:59 33.6 °F 10.7 °F 30.12 in WNW 2.7 mph 14 mph 38% 0.00 in 30 W/m2
15:04 33.6 °F 10.8 °F 30.12 in NW 7.1 mph 20 mph 38.2% 0.00 in 25 W/m2
15:09 33.4 °F 10.5 °F 30.12 in WNW 8.2 mph 20 mph 38% 0.00 in 23 W/m2
15:14 33.2 °F 10.3 °F 30.12 in NW 6.1 mph 20 mph 38% 0.00 in 21 W/m2
15:19 33 °F 10.4 °F 30.12 in WNW 2.4 mph 20 mph 38.4% 0.00 in 21 W/m2
15:24 33 °F 11.1 °F 30.12 in NW 5 mph 20 mph 39.7% 0.00 in 19 W/m2
15:29 33 °F 10.9 °F 30.13 in WNW 3.7 mph 20 mph 39.3% 0.00 in 19 W/m2
15:34 32.9 °F 11.2 °F 30.13 in NW 4.8 mph 20 mph 40% 0.00 in 16 W/m2
15:39 32.8 °F 11.1 °F 30.13 in NW 6 mph 15 mph 40% 0.00 in 14 W/m2
15:44 32.7 °F 11 °F 30.13 in NW 3.5 mph 15 mph 40% 0.00 in 12 W/m2
15:49 32.6 °F 11.2 °F 30.13 in WNW 2.4 mph 15 mph 40.4% 0.00 in 12 W/m2
15:54 32.5 °F 11.4 °F 30.14 in WNW 4 mph 15 mph 41% 0.00 in 11 W/m2
15:59 32.4 °F 11.6 °F 30.14 in WNW 3.4 mph 15 mph 41.4% 0.00 in 9 W/m2
16:00 32.4 °F 12.9 °F 30.13 in WNW 1 mph 15 mph 44% 0.00 in 7 W/m2
16:09 32.4 °F 14 °F 30.14 in NW 4.1 mph 9 mph 46% 0.00 in 5 W/m2
16:14 32.5 °F 14.3 °F 30.14 in WNW 1.1 mph 9 mph 46.6% 0.00 in 5 W/m2
16:19 32.6 °F 15.1 °F 30.14 in NW 1.8 mph 10 mph 48.2% 0.00 in 0 W/m2
16:24 32.6 °F 14.7 °F 30.14 in NW 0.3 mph 10 mph 47.2% 0.00 in 0 W/m2
16:29 32.5 °F 14 °F 30.14 in WNW 1.8 mph 10 mph 45.9% 0.00 in 0 W/m2
16:34 32.4 °F 13 °F 30.14 in NW 1.1 mph 10 mph 44.1% 0.00 in 0 W/m2
16:39 32.3 °F 13 °F 30.14 in NW 0.7 mph 6 mph 44.2% 0.00 in 0 W/m2
16:44 32.3 °F 12.8 °F 30.14 in NW 0.1 mph 6 mph 44% 0.00 in 0 W/m2
16:49 32.3 °F 13 °F 30.14 in NW 0.2 mph 6 mph 44.3% 0.00 in 0 W/m2
16:54 32.2 °F 13.3 °F 30.15 in NW 0.3 mph 6 mph 45% 0.00 in 0 W/m2
16:59 32.1 °F 13.1 °F 30.15 in NW 0.4 mph 6 mph 44.8% 0.00 in 0 W/m2
17:04 32 °F 13.1 °F 30.15 in NW 0.7 mph 6 mph 45% 0.00 in 0 W/m2
17:09 31.9 °F 13 °F 30.15 in NW 0.3 mph 5 mph 45% 0.00 in 0 W/m2
17:14 31.7 °F 12.8 °F 30.16 in NW 0.1 mph 5 mph 45% 0.00 in 0 W/m2
17:19 31.5 °F 12.6 °F 30.16 in NW 0.1 mph 5 mph 45% 0.00 in 0 W/m2
17:24 31.2 °F 12.7 °F 30.16 in NW 0.3 mph 5 mph 45.6% 0.00 in 0 W/m2
17:29 31 °F 12.7 °F 30.16 in NW 0.1 mph 5 mph 46% 0.00 in 0 W/m2
17:34 30.8 °F 12.5 °F 30.16 in Calm   5 mph 46.1% 0.00 in 0 W/m2
17:39 30.7 °F 12.6 °F 30.16 in Calm     46.5% 0.00 in 0 W/m2
17:44 30.5 °F 12.7 °F 30.16 in Calm     47% 0.00 in 0 W/m2
17:49 30.3 °F 12.6 °F 30.16 in Calm     47.1% 0.00 in 0 W/m2
17:54 30.1 °F 13 °F 30.16 in Calm     48.5% 0.00 in 0 W/m2
17:59 29.9 °F 13.1 °F 30.16 in Calm     49% 0.00 in 0 W/m2
18:04 29.8 °F 13 °F 30.16 in Calm   1 mph 49% 0.00 in 0 W/m2
18:09 29.6 °F 13 °F 30.17 in NW 0.1 mph 1 mph 49.4% 0.00 in 0 W/m2
18:14 29.5 °F 13.2 °F 30.17 in Calm   1 mph 50% 0.00 in 0 W/m2
18:19 29.4 °F 13.1 °F 30.16 in NW 0.2 mph 2 mph 50% 0.00 in 0 W/m2
18:24 29.4 °F 13.1 °F 30.17 in NW 0.1 mph 2 mph 50.1% 0.00 in 0 W/m2
18:29 29.4 °F 13.5 °F 30.17 in NW 0.2 mph 2 mph 51% 0.00 in 0 W/m2
18:34 29.5 °F 13.8 °F 30.17 in NW 0.4 mph 3 mph 51.4% 0.00 in 0 W/m2
18:39 29.6 °F 14.1 °F 30.17 in NW 0.5 mph 3 mph 52% 0.00 in 0 W/m2
18:44 29.7 °F 14.2 °F 30.17 in NW 0.2 mph 3 mph 51.8% 0.00 in 0 W/m2
18:49 29.8 °F 14.1 °F 30.17 in NW 0.4 mph 4 mph 51.5% 0.00 in 0 W/m2
18:54 29.8 °F 14.3 °F 30.17 in NW 0.2 mph 4 mph 52% 0.00 in 0 W/m2
18:59 29.8 °F 13.9 °F 30.17 in NW 0.1 mph 4 mph 51% 0.00 in 0 W/m2
19:04 29.8 °F 13.9 °F 30.17 in NW 0.1 mph 4 mph 51% 0.00 in 0 W/m2
19:09 29.7 °F 13.9 °F 30.17 in NW 0.2 mph 2 mph 51.1% 0.00 in 0 W/m2
19:14 29.7 °F 14.2 °F 30.17 in NW 0.2 mph 2 mph 52% 0.00 in 0 W/m2
19:19 29.6 °F 14.2 °F 30.17 in NW 0.4 mph 3 mph 52% 0.00 in 0 W/m2
19:24 29.6 °F 14.2 °F 30.17 in Calm   3 mph 52% 0.00 in 0 W/m2
19:29 29.5 °F 14.1 °F 30.17 in NW 0.4 mph 3 mph 52% 0.00 in 0 W/m2
19:34 29.4 °F 14 °F 30.17 in NW 0.5 mph 3 mph 52% 0.00 in 0 W/m2
19:39 29.3 °F 13.9 °F 30.17 in NW 0.3 mph 3 mph 52% 0.00 in 0 W/m2
19:44 29.3 °F 13.8 °F 30.17 in Calm   3 mph 52% 0.00 in 0 W/m2
19:49 29.2 °F 13.8 °F 30.17 in NW 0.2 mph 3 mph 52% 0.00 in 0 W/m2
19:54 29.1 °F 13.9 °F 30.17 in Calm   3 mph 52.6% 0.00 in 0 W/m2
19:59 29 °F 14 °F 30.17 in Calm   3 mph 53% 0.00 in 0 W/m2
20:00 28.9 °F 13.9 °F 30.16 in Calm   3 mph 53% 0.00 in 0 W/m2
20:09 28.7 °F 13.7 °F 30.17 in NW 0.1 mph 1 mph 53.1% 0.00 in 0 W/m2
20:14 28.6 °F 13.6 °F 30.17 in Calm   1 mph 53% 0.00 in 0 W/m2
20:19 28.5 °F 13.9 °F 30.17 in Calm   1 mph 53.8% 0.00 in 0 W/m2
20:24 28.3 °F 14.1 °F 30.16 in Calm   1 mph 54.7% 0.00 in 0 W/m2
20:29 28.2 °F 14.1 °F 30.17 in Calm   1 mph 55% 0.00 in 0 W/m2
20:34 28.1 °F 14 °F 30.17 in Calm   1 mph 55% 0.00 in 0 W/m2
20:39 28 °F 13.9 °F 30.17 in Calm     55% 0.00 in 0 W/m2
20:44 27.9 °F 14.1 °F 30.17 in Calm     55.6% 0.00 in 0 W/m2
20:49 27.8 °F 14.5 °F 30.17 in Calm   1 mph 56.9% 0.00 in 0 W/m2
20:54 27.8 °F 13.7 °F 30.17 in Calm   1 mph 55% 0.00 in 0 W/m2
20:59 27.7 °F 13.2 °F 30.17 in Calm   2 mph 54% 0.00 in 0 W/m2
21:04 27.7 °F 13.2 °F 30.17 in NW 0.2 mph 2 mph 54% 0.00 in 0 W/m2
21:09 27.6 °F 13.1 °F 30.17 in NW 0.1 mph 2 mph 54% 0.00 in 0 W/m2
21:14 27.6 °F 12.6 °F 30.17 in NW 0.4 mph 3 mph 52.7% 0.00 in 0 W/m2
21:19 27.7 °F 12.5 °F 30.17 in NW 0.2 mph 3 mph 52.5% 0.00 in 0 W/m2
21:24 27.8 °F 12.9 °F 30.16 in NW 0.1 mph 3 mph 53.1% 0.00 in 0 W/m2
21:29 27.8 °F 13 °F 30.16 in Calm   3 mph 53.2% 0.00 in 0 W/m2
21:34 27.9 °F 13 °F 30.16 in Calm   3 mph 53% 0.00 in 0 W/m2
21:39 28 °F 12.9 °F 30.16 in Calm     52.5% 0.00 in 0 W/m2
21:44 28.1 °F 13.4 °F 30.16 in Calm     53.6% 0.00 in 0 W/m2
21:49 28.2 °F 14.1 °F 30.15 in Calm     55% 0.00 in 0 W/m2
21:54 28.2 °F 14.3 °F 30.15 in Calm     55.3% 0.00 in 0 W/m2
21:59 28.3 °F 14.4 °F 30.15 in Calm     55.5% 0.00 in 0 W/m2
22:04 28.4 °F 13.9 °F 30.15 in Calm     54.2% 0.00 in 0 W/m2
22:09 28.4 °F 13.8 °F 30.15 in Calm     53.8% 0.00 in 0 W/m2
22:14 28.5 °F 13.6 °F 30.15 in Calm     53.1% 0.00 in 0 W/m2
22:19 28.6 °F 13.8 °F 30.15 in Calm     53.3% 0.00 in 0 W/m2
22:24 28.7 °F 14.2 °F 30.15 in Calm     54% 0.00 in 0 W/m2
22:29 28.7 °F 14.2 °F 30.14 in Calm     54% 0.00 in 0 W/m2
22:34 28.7 °F 13.3 °F 30.14 in NW 0.1 mph 2 mph 52.1% 0.00 in 0 W/m2
22:38 28.7 °F 13 °F 30.14 in Calm   2 mph 51.3% 0.00 in 0 W/m2
Hartford County Weather
Compliments of Weather Underground - 2 mb